createdAt,value
2018-04-23T00:01:51.176Z,13.29
2018-04-23T00:04:17.190Z,13.28
2018-04-23T00:06:43.296Z,13.25
2018-04-23T00:09:09.357Z,13.20
2018-04-23T00:11:35.414Z,13.12
2018-04-23T00:14:01.421Z,13.13
2018-04-23T00:16:27.504Z,13.10
2018-04-23T00:18:53.520Z,13.09
2018-04-23T00:21:19.555Z,13.04
2018-04-23T00:23:45.593Z,13.00
2018-04-23T00:26:11.629Z,12.98
2018-04-23T00:28:37.651Z,12.98
2018-04-23T00:31:03.661Z,12.95
2018-04-23T00:33:29.802Z,12.92
2018-04-23T00:35:55.839Z,12.90
2018-04-23T00:38:21.845Z,12.86
2018-04-23T00:40:47.861Z,12.85
2018-04-23T00:43:13.913Z,12.80
2018-04-23T00:45:39.932Z,12.78
2018-04-23T00:48:05.924Z,12.71
2018-04-23T00:50:31.962Z,12.63
2018-04-23T00:55:57.717Z,12.62
2018-04-23T00:58:23.776Z,12.55
2018-04-23T01:00:49.800Z,12.52
2018-04-23T01:03:15.840Z,12.51
2018-04-23T01:05:41.879Z,12.50
2018-04-23T01:08:07.909Z,12.47
2018-04-23T01:10:33.921Z,12.47
2018-04-23T01:13:00.005Z,12.52
2018-04-23T01:15:26.089Z,12.55
2018-04-23T01:17:52.076Z,12.53
2018-04-23T01:20:18.109Z,12.53
2018-04-23T01:22:44.129Z,12.56
2018-04-23T01:25:10.177Z,12.61
2018-04-23T01:27:36.373Z,12.62
2018-04-23T01:30:02.383Z,12.61
2018-04-23T01:32:28.398Z,12.63
2018-04-23T01:34:54.381Z,12.67
2018-04-23T01:37:20.528Z,12.68
2018-04-23T01:39:46.597Z,12.68
2018-04-23T01:42:13.655Z,12.72
2018-04-23T01:44:39.660Z,12.72
2018-04-23T01:47:05.693Z,12.76
2018-04-23T01:49:31.696Z,12.76
2018-04-23T01:51:57.693Z,12.78
2018-04-23T01:54:23.789Z,12.73
2018-04-23T01:56:49.820Z,12.70
2018-04-23T01:59:15.865Z,12.67
2018-04-23T02:01:41.959Z,12.60
2018-04-23T02:04:07.965Z,12.61
2018-04-23T02:06:34.068Z,12.60
2018-04-23T02:09:00.066Z,12.57
2018-04-23T02:11:26.128Z,12.53
2018-04-23T02:13:52.185Z,12.52
2018-04-23T02:16:18.194Z,12.53
2018-04-23T02:18:44.209Z,12.53
2018-04-23T02:21:10.285Z,12.50
2018-04-23T02:23:36.308Z,12.52
2018-04-23T02:26:02.332Z,12.51
2018-04-23T02:28:28.328Z,12.48
2018-04-23T02:30:54.428Z,12.47
2018-04-23T02:33:20.462Z,12.45
2018-04-23T02:35:46.541Z,12.45
2018-04-23T02:38:12.552Z,12.41
2018-04-23T02:40:38.793Z,12.38
2018-04-23T02:43:04.817Z,12.35
2018-04-23T02:45:30.896Z,12.29
2018-04-23T02:47:56.998Z,12.26
2018-04-23T02:50:23.038Z,12.24
2018-04-23T02:52:49.149Z,12.21
2018-04-23T02:55:15.282Z,12.17
2018-04-23T02:57:41.789Z,12.17
2018-04-23T03:00:07.858Z,12.12
2018-04-23T03:02:33.913Z,12.12
2018-04-23T03:04:59.958Z,12.10
2018-04-23T03:07:26.013Z,12.05
2018-04-23T03:09:52.079Z,12.00
2018-04-23T03:12:18.148Z,11.97
2018-04-23T03:14:44.144Z,11.94
2018-04-23T03:17:10.227Z,11.88
2018-04-23T03:19:36.212Z,11.86
2018-04-23T03:22:02.187Z,11.82
2018-04-23T03:24:28.678Z,11.78
2018-04-23T03:26:54.781Z,11.73
2018-04-23T03:29:21.263Z,11.71
2018-04-23T03:31:47.511Z,11.67
2018-04-23T03:34:13.531Z,11.59
2018-04-23T03:36:39.864Z,11.60
2018-04-23T03:39:05.880Z,11.58
2018-04-23T03:41:31.882Z,11.53
2018-04-23T03:43:57.903Z,11.51
2018-04-23T03:46:23.926Z,11.47
2018-04-23T03:48:49.968Z,11.46
2018-04-23T03:51:15.956Z,11.45
2018-04-23T03:53:41.959Z,11.45
2018-04-23T03:56:07.996Z,11.37
2018-04-23T03:58:34.005Z,11.38
2018-04-23T04:01:00.035Z,11.35
2018-04-23T04:03:26.026Z,11.36
2018-04-23T04:05:52.033Z,11.35
2018-04-23T04:08:18.100Z,11.37
2018-04-23T04:10:44.088Z,11.39
2018-04-23T04:13:22.164Z,11.36
2018-04-23T04:16:00.256Z,11.34
2018-04-23T04:18:38.445Z,11.32
2018-04-23T04:21:04.490Z,11.28
2018-04-23T04:23:30.616Z,11.21
2018-04-23T04:25:56.622Z,11.20
2018-04-23T04:28:22.663Z,11.14
2018-04-23T04:30:48.901Z,11.16
2018-04-23T04:33:14.998Z,11.17
2018-04-23T04:35:41.054Z,11.20
2018-04-23T04:38:07.042Z,11.23
2018-04-23T04:40:33.176Z,11.25
2018-04-23T04:42:59.716Z,11.23
2018-04-23T04:45:25.821Z,11.20
2018-04-23T04:47:51.847Z,11.17
2018-04-23T04:50:17.986Z,11.17
2018-04-23T04:52:44.001Z,11.10
2018-04-23T04:55:10.072Z,11.09
2018-04-23T04:57:36.144Z,11.13
2018-04-23T05:00:02.188Z,11.14
2018-04-23T05:02:28.350Z,11.16
2018-04-23T05:04:54.387Z,11.17
2018-04-23T05:07:20.364Z,11.21
2018-04-23T05:09:46.886Z,11.21
2018-04-23T05:12:13.144Z,11.25
2018-04-23T05:14:39.281Z,11.27
2018-04-23T05:17:05.483Z,11.25
2018-04-23T05:19:31.505Z,11.28
2018-04-23T05:21:57.524Z,11.29
2018-04-23T05:24:23.624Z,11.26
2018-04-23T05:26:49.650Z,11.32
2018-04-23T05:29:15.669Z,11.40
2018-04-23T05:31:42.265Z,11.38
2018-04-23T05:34:08.268Z,11.39
2018-04-23T05:36:34.330Z,11.44
2018-04-23T05:39:00.378Z,11.50
2018-04-23T05:41:26.391Z,11.56
2018-04-23T05:43:52.446Z,11.68
2018-04-23T05:46:18.449Z,11.73
2018-04-23T05:48:44.472Z,11.82
2018-04-23T05:51:10.473Z,11.91
2018-04-23T05:53:36.522Z,12.01
2018-04-23T05:56:02.552Z,12.05
2018-04-23T05:58:28.747Z,12.20
2018-04-23T06:00:54.836Z,12.25
2018-04-23T06:03:20.836Z,12.39
2018-04-23T06:05:46.867Z,12.48
2018-04-23T06:08:12.984Z,12.58
2018-04-23T06:10:39.049Z,12.53
2018-04-23T06:13:05.059Z,12.63
2018-04-23T06:15:31.372Z,12.64
2018-04-23T06:17:57.421Z,12.71
2018-04-23T06:20:23.520Z,13.01
2018-04-23T06:22:49.698Z,13.05
2018-04-23T06:25:15.814Z,13.00
2018-04-23T06:27:41.831Z,13.30
2018-04-23T06:30:07.929Z,13.25
2018-04-23T06:32:33.992Z,13.14
2018-04-23T06:34:59.993Z,13.09
2018-04-23T06:37:29.987Z,13.14
2018-04-23T06:39:55.999Z,13.12
2018-04-23T06:42:22.444Z,13.23
2018-04-23T06:44:48.795Z,13.43
2018-04-23T06:47:15.925Z,13.47
2018-04-23T06:49:42.054Z,13.53
2018-04-23T06:52:08.076Z,13.55
2018-04-23T06:54:34.129Z,13.57
2018-04-23T06:57:00.459Z,13.58
2018-04-23T06:59:26.545Z,13.58
2018-04-23T07:01:52.610Z,13.56
2018-04-23T07:04:18.573Z,13.63
2018-04-23T07:06:45.605Z,13.62
2018-04-23T07:09:11.648Z,13.84
2018-04-23T07:11:37.773Z,13.93
2018-04-23T07:14:03.810Z,14.01
2018-04-23T07:16:29.828Z,13.82
2018-04-23T07:18:55.896Z,13.89
2018-04-23T07:21:21.973Z,14.32
2018-04-23T07:23:47.968Z,14.35
2018-04-23T07:26:13.972Z,14.26
2018-04-23T07:28:40.100Z,14.20
2018-04-23T07:31:07.412Z,14.09
2018-04-23T07:33:33.824Z,14.03
2018-04-23T07:35:59.893Z,14.06
2018-04-23T07:38:25.959Z,14.14
2018-04-23T07:40:52.041Z,14.11
2018-04-23T07:43:18.261Z,14.11
2018-04-23T07:45:44.269Z,14.19
2018-04-23T07:48:11.107Z,14.43
2018-04-23T07:50:37.234Z,14.92
2018-04-23T07:53:03.311Z,15.18
2018-04-23T07:55:29.321Z,15.08
2018-04-23T07:57:55.466Z,14.97
2018-04-23T08:00:21.604Z,14.78
2018-04-23T08:02:48.265Z,14.51
2018-04-23T08:05:14.330Z,14.94
2018-04-23T08:07:40.392Z,14.96
2018-04-23T08:10:06.443Z,15.12
2018-04-23T08:12:32.465Z,14.79
2018-04-23T08:14:58.484Z,14.52
2018-04-23T08:17:24.552Z,14.76
2018-04-23T08:19:50.601Z,15.09
2018-04-23T08:23:32.553Z,15.07
2018-04-23T08:25:58.581Z,14.80
2018-04-23T08:28:24.574Z,14.95
2018-04-23T08:30:50.582Z,14.88
2018-04-23T08:33:16.588Z,14.88
2018-04-23T08:35:42.558Z,14.71
2018-04-23T08:38:08.565Z,14.71
2018-04-23T08:40:34.575Z,14.98
2018-04-23T08:43:00.613Z,14.88
2018-04-23T08:45:26.741Z,14.84
2018-04-23T08:47:52.799Z,15.26
2018-04-23T08:50:18.853Z,15.48
2018-04-23T08:52:44.843Z,15.71
2018-04-23T08:55:11.215Z,15.85
2018-04-23T08:57:37.349Z,15.82
2018-04-23T09:00:03.618Z,15.86
2018-04-23T09:02:29.575Z,15.84
2018-04-23T09:04:55.620Z,15.59
2018-04-23T09:07:21.670Z,15.39
2018-04-23T09:09:47.657Z,15.09
2018-04-23T09:12:13.660Z,15.09
2018-04-23T09:14:39.804Z,14.98
2018-04-23T09:17:05.806Z,15.12
2018-04-23T09:19:31.806Z,15.43
2018-04-23T09:21:57.868Z,15.64
2018-04-23T09:24:23.999Z,15.61
2018-04-23T09:26:50.021Z,15.55
2018-04-23T09:29:16.052Z,15.66
2018-04-23T09:31:42.048Z,15.79
2018-04-23T09:34:08.097Z,16.08
2018-04-23T09:36:34.230Z,16.21
2018-04-23T09:39:00.291Z,15.87
2018-04-23T09:41:26.249Z,15.98
2018-04-23T09:43:52.288Z,16.03
2018-04-23T09:46:18.297Z,16.04
2018-04-23T09:48:44.310Z,16.45
2018-04-23T09:51:10.361Z,16.99
2018-04-23T09:53:36.392Z,16.80
2018-04-23T09:56:02.405Z,17.21
2018-04-23T09:58:28.422Z,17.36
2018-04-23T10:00:54.520Z,17.23
2018-04-23T10:03:24.476Z,17.30
2018-04-23T10:05:50.537Z,17.00
2018-04-23T10:08:16.533Z,16.89
2018-04-23T10:10:42.541Z,16.44
2018-04-23T10:13:08.626Z,16.51
2018-04-23T10:15:34.790Z,17.06
2018-04-23T10:18:00.860Z,17.37
2018-04-23T10:20:26.888Z,17.18
2018-04-23T10:22:52.946Z,18.03
2018-04-23T10:25:19.098Z,18.17
2018-04-23T10:27:45.184Z,18.16
2018-04-23T10:30:11.238Z,19.68
2018-04-23T10:32:37.332Z,19.80
2018-04-23T10:35:04.086Z,18.96
2018-04-23T10:37:30.103Z,19.45
2018-04-23T10:39:56.107Z,20.34
2018-04-23T10:42:22.143Z,21.21
2018-04-23T10:44:48.252Z,21.34
2018-04-23T10:47:14.306Z,22.37
2018-04-23T10:49:40.313Z,22.73
2018-04-23T10:52:06.325Z,22.28
2018-04-23T10:54:32.397Z,21.22
2018-04-23T10:56:58.453Z,19.97
2018-04-23T10:59:24.455Z,19.74
2018-04-23T11:01:50.808Z,19.43
2018-04-23T11:04:16.896Z,20.00
2018-04-23T11:06:43.016Z,20.05
2018-04-23T11:09:10.095Z,20.13
2018-04-23T11:11:38.333Z,19.18
2018-04-23T11:14:04.385Z,18.90
2018-04-23T11:16:30.392Z,19.07
2018-04-23T11:18:56.434Z,20.67
2018-04-23T11:21:22.447Z,19.90
2018-04-23T11:23:48.519Z,21.37
2018-04-23T11:26:14.588Z,19.06
2018-04-23T11:28:40.659Z,20.07
2018-04-23T11:31:07.021Z,18.86
2018-04-23T11:33:33.105Z,19.65
2018-04-23T11:35:59.759Z,19.96
2018-04-23T11:38:25.786Z,21.25
2018-04-23T11:40:51.852Z,20.34
2018-04-23T11:43:17.893Z,20.96
2018-04-23T11:45:44.090Z,21.28
2018-04-23T11:48:10.129Z,21.42
2018-04-23T11:50:36.231Z,21.59
2018-04-23T11:53:02.237Z,21.05
2018-04-23T11:55:28.252Z,20.83
2018-04-23T11:57:54.284Z,20.42
2018-04-23T12:00:20.410Z,19.75
2018-04-23T12:02:47.077Z,19.28
2018-04-23T12:05:13.708Z,19.26
2018-04-23T12:07:39.821Z,19.17
2018-04-23T12:10:05.816Z,18.65
2018-04-23T12:12:31.837Z,18.32
2018-04-23T12:14:57.888Z,18.03
2018-04-23T12:17:24.811Z,17.59
2018-04-23T12:19:50.897Z,17.23
2018-04-23T12:22:16.953Z,17.13
2018-04-23T12:24:42.953Z,17.12
2018-04-23T12:27:09.131Z,17.15
2018-04-23T12:29:35.266Z,17.19
2018-04-23T12:32:01.393Z,17.24
2018-04-23T12:34:27.449Z,17.57
2018-04-23T12:36:53.520Z,17.49
2018-04-23T12:39:19.569Z,17.31
2018-04-23T12:41:45.695Z,17.14
2018-04-23T12:44:12.168Z,17.30
2018-04-23T12:46:38.199Z,17.51
2018-04-23T12:49:10.989Z,17.35
2018-04-23T12:51:37.069Z,17.06
2018-04-23T12:54:03.237Z,17.13
2018-04-23T12:56:29.347Z,17.23
2018-04-23T12:58:55.420Z,17.59
2018-04-23T13:01:21.423Z,17.83
2018-04-23T13:03:47.559Z,17.97
2018-04-23T13:06:13.597Z,17.97
2018-04-23T13:08:39.602Z,17.40
2018-04-23T13:11:05.611Z,17.36
2018-04-23T13:13:31.717Z,17.55
2018-04-23T13:15:57.844Z,18.35
2018-04-23T13:18:23.929Z,19.19
2018-04-23T13:20:49.969Z,19.90
2018-04-23T13:23:16.021Z,19.88
2018-04-23T13:25:42.108Z,20.81
2018-04-23T13:28:08.135Z,22.21
2018-04-23T13:30:34.219Z,22.84
2018-04-23T13:33:00.221Z,23.42
2018-04-23T13:35:26.236Z,23.88
2018-04-23T13:37:52.322Z,24.23
2018-04-23T13:40:18.356Z,24.46
2018-04-23T13:42:44.385Z,25.54
2018-04-23T13:45:10.444Z,26.15
2018-04-23T13:47:36.452Z,25.76
2018-04-23T13:50:02.466Z,26.04
2018-04-23T13:52:28.503Z,26.11
2018-04-23T13:54:54.498Z,26.91
2018-04-23T13:57:20.488Z,26.66
2018-04-23T13:59:46.463Z,26.13
2018-04-23T14:02:12.461Z,25.80
2018-04-23T14:04:38.445Z,26.26
2018-04-23T14:07:04.493Z,26.75
2018-04-23T14:09:30.565Z,26.82
2018-04-23T14:12:03.547Z,27.02
2018-04-23T14:14:29.684Z,27.41
2018-04-23T14:16:55.772Z,27.94
2018-04-23T14:19:21.790Z,27.92
2018-04-23T14:21:48.393Z,27.63
2018-04-23T14:24:14.390Z,26.93
2018-04-23T14:26:40.397Z,27.47
2018-04-23T14:29:06.384Z,25.49
2018-04-23T14:31:32.441Z,26.73
2018-04-23T14:33:58.458Z,27.23
2018-04-23T14:36:24.460Z,26.75
2018-04-23T14:38:50.517Z,27.30
2018-04-23T14:41:16.574Z,27.49
2018-04-23T14:43:42.701Z,28.14
2018-04-23T14:46:08.737Z,28.04
2018-04-23T14:48:34.855Z,28.20
2018-04-23T14:51:00.894Z,26.54
2018-04-23T14:53:26.914Z,25.53
2018-04-23T14:55:53.036Z,25.48
2018-04-23T14:58:19.141Z,25.63
2018-04-23T15:00:45.153Z,25.77
2018-04-23T15:03:11.145Z,25.02
2018-04-23T15:05:37.600Z,24.94
2018-04-23T15:08:03.684Z,24.73
2018-04-23T15:10:29.750Z,24.38
2018-04-23T15:12:55.861Z,24.98
2018-04-23T15:15:21.882Z,25.03
2018-04-23T15:17:48.005Z,25.06
2018-04-23T15:20:14.047Z,24.20
2018-04-23T15:22:40.065Z,23.97
2018-04-23T15:25:06.080Z,24.28
2018-04-23T15:27:32.193Z,24.00
2018-04-23T15:29:58.292Z,24.18
2018-04-23T15:32:24.276Z,23.32
2018-04-23T15:34:50.324Z,23.48
2018-04-23T15:37:16.384Z,23.42
2018-04-23T15:39:42.419Z,23.29
2018-04-23T15:42:08.473Z,23.14
2018-04-23T15:44:34.463Z,23.15
2018-04-23T15:47:00.485Z,23.26
2018-04-23T15:49:26.590Z,23.04
2018-04-23T15:51:52.602Z,22.96
2018-04-23T15:54:18.645Z,22.68
2018-04-23T15:56:44.668Z,22.88
2018-04-23T15:59:10.695Z,24.30
2018-04-23T16:01:36.713Z,26.78
2018-04-23T16:04:02.701Z,27.98
2018-04-23T16:06:28.701Z,27.89
2018-04-23T16:08:54.822Z,28.00
2018-04-23T16:11:20.850Z,27.57
2018-04-23T16:13:46.851Z,27.92
2018-04-23T16:16:12.918Z,27.11
2018-04-23T16:18:39.005Z,28.36
2018-04-23T16:21:04.999Z,26.61
2018-04-23T16:23:31.081Z,25.92
2018-04-23T16:25:57.184Z,23.08
2018-04-23T16:28:23.271Z,20.74
2018-04-23T16:30:49.316Z,19.75
2018-04-23T16:33:15.326Z,18.91
2018-04-23T16:35:41.399Z,18.31
2018-04-23T16:38:07.540Z,17.91
2018-04-23T16:40:33.695Z,17.46
2018-04-23T16:42:59.700Z,17.16
2018-04-23T16:45:25.824Z,16.96
2018-04-23T16:47:51.933Z,16.78
2018-04-23T16:50:24.874Z,16.59
2018-04-23T16:52:50.994Z,16.32
2018-04-23T16:55:17.023Z,15.99
2018-04-23T16:57:43.036Z,15.87
2018-04-23T17:00:09.218Z,15.83
2018-04-23T17:02:35.330Z,15.83
2018-04-23T17:05:01.362Z,15.71
2018-04-23T17:07:27.378Z,15.49
2018-04-23T17:09:53.471Z,15.37
2018-04-23T17:12:19.514Z,15.28
2018-04-23T17:14:45.555Z,15.15
2018-04-23T17:17:11.633Z,14.86
2018-04-23T17:19:37.676Z,14.68
2018-04-23T17:22:03.725Z,14.57
2018-04-23T17:24:29.763Z,14.35
2018-04-23T17:26:55.786Z,14.28
2018-04-23T17:29:21.962Z,14.16
2018-04-23T17:31:47.977Z,14.12
2018-04-23T17:34:14.106Z,13.93
2018-04-23T17:36:40.160Z,13.86
2018-04-23T17:39:06.389Z,13.67
2018-04-23T17:41:32.529Z,13.60
2018-04-23T17:43:58.636Z,13.47
2018-04-23T17:46:24.672Z,13.52
2018-04-23T17:48:50.827Z,13.48
2018-04-23T17:51:16.879Z,13.40
2018-04-23T17:53:42.896Z,13.29
2018-04-23T17:56:09.136Z,13.11
2018-04-23T17:58:35.209Z,13.10
2018-04-23T18:01:01.298Z,13.02
2018-04-23T18:03:27.382Z,12.97
2018-04-23T18:05:53.501Z,12.89
2018-04-23T18:08:19.613Z,12.88
2018-04-23T18:10:45.728Z,12.88
2018-04-23T18:13:11.747Z,12.78
2018-04-23T18:15:38.060Z,12.78
2018-04-23T18:18:04.239Z,12.71
2018-04-23T18:20:30.314Z,12.69
2018-04-23T18:22:56.432Z,12.72
2018-04-23T18:25:22.470Z,12.62
2018-04-23T18:27:48.615Z,12.62
2018-04-23T18:30:14.767Z,12.54
2018-04-23T18:32:40.829Z,12.48
2018-04-23T18:35:06.959Z,12.43
2018-04-23T18:37:33.097Z,12.39
2018-04-23T18:39:59.190Z,12.31
2018-04-23T18:42:25.254Z,12.24
2018-04-23T18:44:51.302Z,12.19
2018-04-23T18:47:17.522Z,12.17
2018-04-23T18:49:44.271Z,12.10
2018-04-23T18:52:10.262Z,12.07
2018-04-23T18:54:36.387Z,12.01
2018-04-23T18:57:02.493Z,11.95
2018-04-23T18:59:28.623Z,11.91
2018-04-23T19:01:54.714Z,11.89
2018-04-23T19:04:20.788Z,11.86
2018-04-23T19:06:46.890Z,11.79
2018-04-23T19:09:12.936Z,11.74
2018-04-23T19:11:39.087Z,11.72
2018-04-23T19:14:05.105Z,11.73
2018-04-23T19:16:31.232Z,11.64
2018-04-23T19:18:57.913Z,11.61
2018-04-23T19:21:23.961Z,11.60
2018-04-23T19:23:50.073Z,11.56
2018-04-23T19:26:16.223Z,11.56
2018-04-23T19:28:42.265Z,11.54
2018-04-23T19:31:08.342Z,11.53
2018-04-23T19:33:34.356Z,11.46
2018-04-23T19:36:00.459Z,11.44
2018-04-23T19:38:26.497Z,11.41
2018-04-23T19:40:52.550Z,11.36
2018-04-23T19:43:19.165Z,11.30
2018-04-23T19:45:45.289Z,11.27
2018-04-23T19:48:11.426Z,11.28
2018-04-23T19:50:37.476Z,11.22
2018-04-23T19:53:03.577Z,11.16
2018-04-23T19:55:29.717Z,11.14
2018-04-23T19:57:55.875Z,11.12
2018-04-23T20:00:21.937Z,11.12
2018-04-23T20:02:48.018Z,11.10
2018-04-23T20:05:14.152Z,11.01
2018-04-23T20:07:40.221Z,10.97
2018-04-23T20:10:06.302Z,10.97
2018-04-23T20:12:32.383Z,10.93
2018-04-23T20:14:58.536Z,10.90
2018-04-23T20:17:24.510Z,10.89
2018-04-23T20:19:50.522Z,10.87
2018-04-23T20:22:16.602Z,10.83
2018-04-23T20:24:42.623Z,10.81
2018-04-23T20:27:08.765Z,10.79
2018-04-23T20:29:34.832Z,10.78
2018-04-23T20:32:00.962Z,10.76
2018-04-23T20:34:26.961Z,10.73
2018-04-23T20:36:52.996Z,10.71
2018-04-23T20:39:19.107Z,10.69
2018-04-23T20:41:45.318Z,10.67
2018-04-23T20:44:11.492Z,10.67
2018-04-23T20:46:37.520Z,10.68
2018-04-23T20:49:03.610Z,10.72
2018-04-23T20:51:29.758Z,10.73
2018-04-23T20:53:55.782Z,10.72
2018-04-23T20:56:21.810Z,10.72
2018-04-23T20:58:47.881Z,10.74
2018-04-23T21:01:13.983Z,10.69
2018-04-23T21:03:40.089Z,10.72
2018-04-23T21:06:06.141Z,10.70
2018-04-23T21:08:32.156Z,10.70
2018-04-23T21:10:58.234Z,10.69
2018-04-23T21:13:24.298Z,10.69
2018-04-23T21:15:50.329Z,10.72
2018-04-23T21:18:16.388Z,10.71
2018-04-23T21:20:42.451Z,10.71
2018-04-23T21:23:09.115Z,10.74
2018-04-23T21:25:35.148Z,10.72
2018-04-23T21:28:01.189Z,10.69
2018-04-23T21:30:27.315Z,10.69
2018-04-23T21:32:53.464Z,10.70
2018-04-23T21:35:19.492Z,10.69
2018-04-23T21:37:45.647Z,10.67
2018-04-23T21:40:11.673Z,10.66
2018-04-23T21:42:37.786Z,10.62
2018-04-23T21:45:03.827Z,10.58
2018-04-23T21:47:29.869Z,10.58
2018-04-23T21:49:55.956Z,10.57
2018-04-23T21:52:22.040Z,10.54
2018-04-23T21:54:48.071Z,10.52
2018-04-23T21:57:14.078Z,10.50
2018-04-23T21:59:40.796Z,10.47
2018-04-23T22:02:06.817Z,10.44
2018-04-23T22:04:32.865Z,10.42
2018-04-23T22:06:58.950Z,10.44
2018-04-23T22:09:25.032Z,10.42
2018-04-23T22:11:51.028Z,10.40
2018-04-23T22:14:17.097Z,10.37
2018-04-23T22:16:43.167Z,10.39
2018-04-23T22:19:09.300Z,10.35
2018-04-23T22:21:35.423Z,10.32
2018-04-23T22:24:01.429Z,10.31
2018-04-23T22:26:27.558Z,10.32
2018-04-23T22:28:53.911Z,10.32
2018-04-23T22:31:19.976Z,10.31
2018-04-23T22:33:46.029Z,10.32
2018-04-23T22:36:12.063Z,10.30
2018-04-23T22:38:38.106Z,10.31
2018-04-23T22:41:05.192Z,10.26
2018-04-23T22:43:32.159Z,10.25
2018-04-23T22:45:58.213Z,10.22
2018-04-23T22:48:24.252Z,10.22
2018-04-23T22:50:50.281Z,10.21
2018-04-23T22:53:16.290Z,10.18
2018-04-23T22:55:42.338Z,10.17
2018-04-23T22:58:08.397Z,10.15
2018-04-23T23:00:34.442Z,10.10
2018-04-23T23:03:00.449Z,10.07
2018-04-23T23:05:26.477Z,10.06
2018-04-23T23:07:52.496Z,10.03
2018-04-23T23:10:18.522Z,10.01
2018-04-23T23:12:44.560Z,10.00
2018-04-23T23:15:11.176Z,10.00
2018-04-23T23:17:37.300Z,9.99
2018-04-23T23:20:03.372Z,9.97
2018-04-23T23:22:29.398Z,9.99
2018-04-23T23:24:55.915Z,9.99
2018-04-23T23:27:22.016Z,9.99
2018-04-23T23:29:48.180Z,9.98
2018-04-23T23:32:14.187Z,9.93
2018-04-23T23:34:40.176Z,9.89
2018-04-23T23:37:06.212Z,9.91
2018-04-23T23:39:32.233Z,9.91
2018-04-23T23:41:58.245Z,9.92
2018-04-23T23:44:24.270Z,9.91
2018-04-23T23:46:50.360Z,9.91
2018-04-23T23:49:16.410Z,9.91
2018-04-23T23:51:42.438Z,9.88
2018-04-23T23:54:08.485Z,9.87
2018-04-23T23:56:34.496Z,9.85
2018-04-23T23:59:00.512Z,9.83
